createdAt,value
2023-05-10T00:00:29.618Z,13.77
2023-05-10T00:02:56.351Z,13.63
2023-05-10T00:05:24.694Z,13.65
2023-05-10T00:07:51.347Z,13.48
2023-05-10T00:10:18.246Z,13.57
2023-05-10T00:12:45.029Z,13.49
2023-05-10T00:15:11.761Z,13.58
2023-05-10T00:17:38.464Z,13.81
2023-05-10T00:20:06.048Z,13.65
2023-05-10T00:22:34.181Z,13.68
2023-05-10T00:25:00.955Z,13.71
2023-05-10T00:27:27.623Z,13.82
2023-05-10T00:29:54.327Z,13.83
2023-05-10T00:32:21.892Z,13.89
2023-05-10T00:34:49.345Z,13.66
2023-05-10T00:37:16.100Z,13.52
2023-05-10T00:39:44.078Z,13.52
2023-05-10T00:42:11.673Z,13.61
2023-05-10T00:44:38.376Z,13.81
2023-05-10T00:47:06.453Z,13.53
2023-05-10T00:49:33.091Z,13.45
2023-05-10T00:51:59.838Z,13.55
2023-05-10T00:54:26.650Z,13.72
2023-05-10T00:56:54.671Z,13.83
2023-05-10T00:59:21.760Z,13.74
2023-05-10T01:01:48.672Z,13.82
2023-05-10T01:04:15.954Z,13.80
2023-05-10T01:06:42.796Z,13.84
2023-05-10T01:09:09.415Z,13.58
2023-05-10T01:11:36.490Z,13.51
2023-05-10T01:14:04.555Z,13.68
2023-05-10T01:16:33.428Z,13.48
2023-05-10T01:19:00.280Z,13.69
2023-05-10T01:21:33.148Z,13.66
2023-05-10T01:24:23.825Z,13.56
2023-05-10T01:27:08.493Z,13.58
2023-05-10T01:30:14.178Z,13.36
2023-05-10T01:32:44.666Z,13.53
2023-05-10T01:35:13.687Z,13.55
2023-05-10T01:37:43.605Z,13.45
2023-05-10T01:40:14.521Z,13.45
2023-05-10T01:42:45.673Z,13.56
2023-05-10T01:45:15.817Z,13.77
2023-05-10T01:47:44.763Z,14.03
2023-05-10T01:50:18.155Z,13.93
2023-05-10T01:52:49.170Z,14.18
2023-05-10T01:55:17.548Z,14.14
2023-05-10T01:57:45.775Z,14.12
2023-05-10T02:00:14.587Z,14.17
2023-05-10T02:02:43.359Z,14.17
2023-05-10T02:05:13.401Z,14.21
2023-05-10T02:07:40.338Z,14.09
2023-05-10T02:10:08.867Z,14.12
2023-05-10T02:12:37.019Z,14.12
2023-05-10T02:15:05.505Z,13.99
2023-05-10T02:17:32.932Z,14.03
2023-05-10T02:19:59.905Z,14.00
2023-05-10T02:22:28.540Z,14.02
2023-05-10T02:24:56.058Z,13.99
2023-05-10T02:27:24.066Z,13.98
2023-05-10T02:29:51.269Z,13.98
2023-05-10T02:32:19.110Z,13.97
2023-05-10T02:34:46.622Z,13.95
2023-05-10T02:37:15.688Z,13.85
2023-05-10T02:39:46.444Z,13.76
2023-05-10T02:42:14.726Z,13.63
2023-05-10T02:44:42.484Z,13.76
2023-05-10T02:47:09.311Z,13.87
2023-05-10T02:49:36.200Z,13.71
2023-05-10T02:52:06.037Z,13.64
2023-05-10T02:54:34.144Z,13.40
2023-05-10T02:57:04.869Z,13.24
2023-05-10T02:59:32.068Z,13.39
2023-05-10T03:01:59.160Z,13.32
2023-05-10T03:04:25.883Z,13.34
2023-05-10T03:06:55.144Z,13.48
2023-05-10T03:09:22.537Z,13.48
2023-05-10T03:11:56.469Z,13.04
2023-05-10T03:14:32.778Z,13.15
2023-05-10T03:17:05.319Z,13.33
2023-05-10T03:19:37.024Z,12.98
2023-05-10T03:22:06.019Z,12.89
2023-05-10T03:24:37.649Z,13.16
2023-05-10T03:27:05.397Z,13.28
2023-05-10T03:29:34.091Z,13.29
2023-05-10T03:32:01.279Z,13.20
2023-05-10T03:34:31.430Z,13.32
2023-05-10T03:36:58.569Z,12.96
2023-05-10T03:39:28.145Z,12.72
2023-05-10T03:41:58.008Z,12.91
2023-05-10T03:44:24.775Z,13.15
2023-05-10T03:46:53.054Z,13.22
2023-05-10T03:49:19.842Z,13.12
2023-05-10T03:51:46.612Z,12.78
2023-05-10T03:54:13.312Z,12.85
2023-05-10T03:56:39.899Z,12.86
2023-05-10T03:59:08.489Z,12.92
2023-05-10T04:01:35.638Z,13.10
2023-05-10T04:04:04.503Z,12.78
2023-05-10T04:06:33.060Z,13.07
2023-05-10T04:09:05.119Z,13.29
2023-05-10T04:11:31.805Z,13.41
2023-05-10T04:13:58.509Z,13.43
2023-05-10T04:16:25.211Z,13.44
2023-05-10T04:18:51.928Z,13.25
2023-05-10T04:21:19.975Z,13.34
2023-05-10T04:23:46.661Z,13.28
2023-05-10T04:26:13.581Z,13.37
2023-05-10T04:28:40.365Z,13.35
2023-05-10T04:31:08.328Z,13.02
2023-05-10T04:33:35.519Z,13.15
2023-05-10T04:36:02.366Z,13.07
2023-05-10T04:38:30.385Z,13.23
2023-05-10T04:41:04.610Z,13.27
2023-05-10T04:43:31.615Z,13.35
2023-05-10T04:45:58.388Z,13.43
2023-05-10T04:48:25.056Z,13.58
2023-05-10T04:50:51.655Z,13.61
2023-05-10T04:53:18.294Z,13.51
2023-05-10T04:55:47.075Z,13.50
2023-05-10T04:58:13.686Z,13.22
2023-05-10T05:00:40.422Z,13.05
2023-05-10T05:03:07.183Z,13.07
2023-05-10T05:05:33.980Z,13.25
2023-05-10T05:08:01.027Z,13.34
2023-05-10T05:10:27.654Z,13.54
2023-05-10T05:12:55.772Z,13.57
2023-05-10T05:15:22.411Z,13.64
2023-05-10T05:17:49.083Z,13.73
2023-05-10T05:20:15.915Z,13.82
2023-05-10T05:22:42.772Z,13.86
2023-05-10T05:25:09.617Z,13.81
2023-05-10T05:27:36.340Z,13.63
2023-05-10T05:30:05.240Z,13.37
2023-05-10T05:32:31.874Z,13.52
2023-05-10T05:34:58.524Z,13.67
2023-05-10T05:37:25.522Z,13.49
2023-05-10T05:39:52.225Z,13.34
2023-05-10T05:42:19.902Z,12.99
2023-05-10T05:44:46.695Z,13.23
2023-05-10T05:47:14.767Z,13.23
2023-05-10T05:49:41.652Z,12.91
2023-05-10T05:52:08.259Z,13.20
2023-05-10T05:54:34.885Z,13.12
2023-05-10T05:57:01.821Z,13.33
2023-05-10T05:59:28.478Z,13.29
2023-05-10T06:01:55.269Z,12.91
2023-05-10T06:04:23.449Z,12.95
2023-05-10T06:06:50.205Z,12.86
2023-05-10T06:09:17.079Z,12.63
2023-05-10T06:11:43.993Z,12.54
2023-05-10T06:14:11.356Z,12.51
2023-05-10T06:16:38.213Z,12.37
2023-05-10T06:19:04.930Z,12.16
2023-05-10T06:21:32.922Z,12.15
2023-05-10T06:23:59.693Z,12.16
2023-05-10T06:26:26.548Z,12.20
2023-05-10T06:28:53.190Z,12.30
2023-05-10T06:31:19.858Z,12.14
2023-05-10T06:33:46.525Z,12.23
2023-05-10T06:36:14.239Z,12.30
2023-05-10T06:38:42.395Z,12.44
2023-05-10T06:41:09.261Z,12.39
2023-05-10T06:43:36.023Z,12.51
2023-05-10T06:46:02.720Z,12.30
2023-05-10T06:48:29.497Z,12.41
2023-05-10T06:50:56.258Z,12.20
2023-05-10T06:53:22.967Z,12.33
2023-05-10T06:55:51.919Z,12.34
2023-05-10T06:58:18.700Z,12.24
2023-05-10T07:00:46.445Z,12.34
2023-05-10T07:03:13.392Z,12.20
2023-05-10T07:05:40.188Z,12.16
2023-05-10T07:08:06.945Z,12.45
2023-05-10T07:10:33.961Z,12.15
2023-05-10T07:13:02.529Z,12.11
2023-05-10T07:15:29.629Z,12.45
2023-05-10T07:17:56.583Z,13.15
2023-05-10T07:20:23.423Z,12.74
2023-05-10T07:22:50.151Z,13.33
2023-05-10T07:25:17.088Z,13.78
2023-05-10T07:27:43.896Z,13.83
2023-05-10T07:30:12.858Z,13.80
2023-05-10T07:32:40.533Z,13.81
2023-05-10T07:35:07.893Z,13.09
2023-05-10T07:37:34.717Z,13.41
2023-05-10T07:40:01.526Z,13.63
2023-05-10T07:42:28.275Z,13.46
2023-05-10T07:44:54.912Z,13.75
2023-05-10T07:47:23.136Z,13.99
2023-05-10T07:49:49.957Z,14.04
2023-05-10T07:52:16.699Z,13.84
2023-05-10T07:54:43.414Z,14.08
2023-05-10T07:57:10.290Z,14.45
2023-05-10T07:59:37.646Z,16.07
2023-05-10T08:02:04.458Z,16.39
2023-05-10T08:04:32.635Z,17.03
2023-05-10T08:06:59.305Z,17.26
2023-05-10T08:09:25.991Z,17.10
2023-05-10T08:11:52.788Z,17.12
2023-05-10T08:14:19.571Z,16.09
2023-05-10T08:16:46.371Z,15.37
2023-05-10T08:19:13.199Z,16.57
2023-05-10T08:21:43.155Z,16.46
2023-05-10T08:24:09.914Z,14.95
2023-05-10T08:26:36.755Z,15.65
2023-05-10T08:29:03.498Z,15.77
2023-05-10T08:31:30.329Z,15.93
2023-05-10T08:33:57.030Z,15.73
2023-05-10T08:36:25.300Z,15.20
2023-05-10T08:38:54.263Z,15.42
2023-05-10T08:41:22.086Z,15.95
2023-05-10T08:43:48.931Z,16.87
2023-05-10T08:46:17.748Z,15.46
2023-05-10T08:48:45.359Z,16.87
2023-05-10T08:51:14.117Z,15.97
2023-05-10T08:53:40.976Z,15.13
2023-05-10T08:56:09.421Z,14.97
2023-05-10T08:58:36.440Z,14.54
2023-05-10T09:01:03.695Z,14.70
2023-05-10T09:03:30.809Z,14.88
2023-05-10T09:05:57.776Z,15.97
2023-05-10T09:08:26.871Z,15.49
2023-05-10T09:10:53.669Z,15.45
2023-05-10T09:13:22.197Z,15.35
2023-05-10T09:15:49.291Z,15.24
2023-05-10T09:18:16.320Z,15.88
2023-05-10T09:20:43.265Z,16.16
2023-05-10T09:23:10.152Z,16.42
2023-05-10T09:25:38.181Z,16.34
2023-05-10T09:28:07.139Z,15.86
2023-05-10T09:30:35.494Z,15.28
2023-05-10T09:33:02.780Z,16.83
2023-05-10T09:35:31.229Z,16.84
2023-05-10T09:37:58.759Z,17.44
2023-05-10T09:40:26.347Z,16.49
2023-05-10T09:42:53.642Z,16.56
2023-05-10T09:45:20.549Z,17.13
2023-05-10T09:47:49.096Z,16.98
2023-05-10T09:50:16.052Z,17.61
2023-05-10T09:52:50.394Z,17.43
2023-05-10T09:55:17.539Z,16.53
2023-05-10T09:57:44.416Z,16.14
2023-05-10T10:00:11.657Z,16.33
2023-05-10T10:02:41.538Z,16.90
2023-05-10T10:05:10.221Z,16.84
2023-05-10T10:07:37.424Z,17.71
2023-05-10T10:10:05.764Z,17.58
2023-05-10T10:12:32.682Z,17.59
2023-05-10T10:15:00.671Z,16.86
2023-05-10T10:17:28.674Z,16.66
2023-05-10T10:19:56.614Z,16.62
2023-05-10T10:22:24.654Z,15.84
2023-05-10T10:24:51.509Z,15.85
2023-05-10T10:27:22.858Z,15.88
2023-05-10T10:29:53.507Z,15.72
2023-05-10T10:32:23.198Z,16.39
2023-05-10T10:34:50.290Z,16.32
2023-05-10T10:37:17.270Z,15.77
2023-05-10T10:39:45.425Z,15.53
2023-05-10T10:42:12.164Z,15.10
2023-05-10T10:44:39.393Z,15.27
2023-05-10T10:47:09.277Z,15.50
2023-05-10T10:49:43.428Z,15.58
2023-05-10T10:52:21.370Z,15.87
2023-05-10T10:54:53.480Z,15.85
2023-05-10T10:57:22.928Z,16.58
2023-05-10T10:59:49.645Z,16.00
2023-05-10T11:02:34.439Z,16.22
2023-05-10T11:05:01.956Z,16.50
2023-05-10T11:07:28.711Z,16.84
2023-05-10T11:09:57.144Z,16.23
2023-05-10T11:12:23.837Z,16.59
2023-05-10T11:14:50.993Z,16.70
2023-05-10T11:17:24.987Z,16.84
2023-05-10T11:20:07.530Z,16.90
2023-05-10T11:22:49.762Z,16.90
2023-05-10T11:25:17.819Z,16.35
2023-05-10T11:27:44.645Z,16.18
2023-05-10T11:30:12.448Z,15.41
2023-05-10T11:32:39.404Z,13.95
2023-05-10T11:35:09.263Z,13.87
2023-05-10T11:37:36.009Z,13.60
2023-05-10T11:40:03.376Z,13.89
2023-05-10T11:42:31.538Z,14.38
2023-05-10T11:44:58.111Z,15.28
2023-05-10T11:47:24.793Z,15.91
2023-05-10T11:49:52.785Z,16.21
2023-05-10T11:52:19.880Z,16.61
2023-05-10T11:54:51.624Z,17.58
2023-05-10T11:57:19.251Z,17.71
2023-05-10T11:59:47.265Z,17.05
2023-05-10T12:02:14.326Z,16.74
2023-05-10T12:04:41.208Z,16.76
2023-05-10T12:07:08.791Z,15.87
2023-05-10T12:09:43.819Z,15.82
2023-05-10T12:12:11.253Z,15.80
2023-05-10T12:14:38.219Z,17.13
2023-05-10T12:17:06.427Z,16.80
2023-05-10T12:19:38.131Z,17.06
2023-05-10T12:22:05.750Z,16.61
2023-05-10T12:24:34.690Z,16.53
2023-05-10T12:27:05.277Z,17.68
2023-05-10T12:29:31.903Z,17.92
2023-05-10T12:31:59.281Z,18.83
2023-05-10T12:34:33.992Z,17.93
2023-05-10T12:37:01.275Z,17.17
2023-05-10T12:39:38.607Z,17.89
2023-05-10T12:42:05.453Z,18.44
2023-05-10T12:44:32.029Z,18.57
2023-05-10T12:46:58.627Z,18.74
2023-05-10T12:49:25.292Z,18.05
2023-05-10T12:51:53.252Z,17.74
2023-05-10T12:54:19.818Z,18.58
2023-05-10T12:56:46.499Z,17.90
2023-05-10T12:59:13.201Z,17.58
2023-05-10T13:01:40.592Z,18.00
2023-05-10T13:04:07.379Z,17.59
2023-05-10T13:06:34.053Z,18.12
2023-05-10T13:09:02.077Z,18.32
2023-05-10T13:11:28.750Z,18.01
2023-05-10T13:13:55.391Z,18.70
2023-05-10T13:16:22.176Z,18.97
2023-05-10T13:18:48.878Z,18.54
2023-05-10T13:21:15.737Z,18.55
2023-05-10T13:23:42.417Z,18.04
2023-05-10T13:26:10.598Z,18.95
2023-05-10T13:28:37.205Z,18.45
2023-05-10T13:31:03.985Z,19.12
2023-05-10T13:33:30.619Z,18.81
2023-05-10T13:35:57.238Z,18.78
2023-05-10T13:38:23.886Z,17.58
2023-05-10T13:40:53.527Z,17.87
2023-05-10T13:43:21.780Z,18.40
2023-05-10T13:45:48.420Z,19.13
2023-05-10T13:48:15.213Z,18.73
2023-05-10T13:50:41.972Z,18.24
2023-05-10T13:53:08.669Z,18.76
2023-05-10T13:55:35.241Z,18.14
2023-05-10T13:58:02.376Z,18.04
2023-05-10T14:00:30.397Z,18.30
2023-05-10T14:02:57.153Z,17.40
2023-05-10T14:05:26.193Z,17.33
2023-05-10T14:07:53.470Z,17.57
2023-05-10T14:10:20.210Z,17.53
2023-05-10T14:12:46.990Z,17.90
2023-05-10T14:15:13.580Z,18.04
2023-05-10T14:17:41.811Z,18.09
2023-05-10T14:20:08.667Z,18.12
2023-05-10T14:22:35.587Z,18.11
2023-05-10T14:25:02.354Z,18.13
2023-05-10T14:27:29.275Z,18.74
2023-05-10T14:29:56.053Z,18.76
2023-05-10T14:32:22.854Z,18.46
2023-05-10T14:34:51.119Z,17.94
2023-05-10T14:37:17.687Z,17.67
2023-05-10T14:39:44.328Z,17.26
2023-05-10T14:42:11.071Z,17.13
2023-05-10T14:44:38.292Z,17.10
2023-05-10T14:47:05.071Z,17.19
2023-05-10T14:49:31.725Z,17.02
2023-05-10T14:51:59.759Z,17.28
2023-05-10T14:54:26.896Z,17.81
2023-05-10T14:56:53.644Z,18.51
2023-05-10T14:59:21.346Z,18.43
2023-05-10T15:01:48.512Z,18.03
2023-05-10T15:04:17.387Z,17.98
2023-05-10T15:06:44.648Z,18.30
2023-05-10T15:09:12.593Z,17.76
2023-05-10T15:11:39.353Z,18.13
2023-05-10T15:14:06.109Z,17.91
2023-05-10T15:16:35.715Z,16.84
2023-05-10T15:19:03.113Z,16.66
2023-05-10T15:21:30.263Z,16.52
2023-05-10T15:23:57.005Z,16.87
2023-05-10T15:26:27.182Z,16.65
2023-05-10T15:28:53.891Z,16.14
2023-05-10T15:31:20.626Z,16.31
2023-05-10T15:33:47.384Z,16.74
2023-05-10T15:36:13.999Z,16.62
2023-05-10T15:38:40.893Z,17.22
2023-05-10T15:41:07.636Z,17.30
2023-05-10T15:43:35.780Z,16.49
2023-05-10T15:46:02.699Z,16.62
2023-05-10T15:48:32.353Z,16.32
2023-05-10T15:50:59.150Z,16.48
2023-05-10T15:53:25.916Z,16.67
2023-05-10T15:55:52.689Z,16.95
2023-05-10T15:58:19.395Z,17.08
2023-05-10T16:00:48.472Z,17.26
2023-05-10T16:03:15.160Z,17.21
2023-05-10T16:05:42.194Z,16.64
2023-05-10T16:08:08.973Z,16.44
2023-05-10T16:10:35.643Z,16.41
2023-05-10T16:13:03.949Z,16.56
2023-05-10T16:15:30.616Z,16.40
2023-05-10T16:17:58.942Z,16.75
2023-05-10T16:20:25.994Z,16.78
2023-05-10T16:22:52.909Z,16.67
2023-05-10T16:25:19.874Z,16.37
2023-05-10T16:27:47.023Z,16.39
2023-05-10T16:30:14.292Z,16.34
2023-05-10T16:32:40.970Z,16.02
2023-05-10T16:35:10.550Z,16.15
2023-05-10T16:37:37.170Z,16.15
2023-05-10T16:40:04.554Z,16.37
2023-05-10T16:42:31.456Z,16.61
2023-05-10T16:44:58.376Z,17.07
2023-05-10T16:47:26.908Z,16.94
2023-05-10T16:49:54.074Z,16.18
2023-05-10T16:52:22.257Z,15.93
2023-05-10T16:55:09.170Z,16.06
2023-05-10T16:57:36.210Z,16.07
2023-05-10T17:00:03.230Z,16.04
2023-05-10T17:05:16.228Z,15.59
2023-05-10T17:07:44.354Z,15.68
2023-05-10T17:10:11.468Z,15.91
2023-05-10T17:12:38.284Z,15.80
2023-05-10T17:15:05.683Z,15.57
2023-05-10T17:17:32.377Z,15.42
2023-05-10T17:19:59.369Z,15.17
2023-05-10T17:22:26.070Z,15.04
2023-05-10T17:24:54.184Z,15.04
2023-05-10T17:27:21.236Z,14.95
2023-05-10T17:29:48.004Z,14.95
2023-05-10T17:32:14.869Z,14.70
2023-05-10T17:34:41.658Z,14.74
2023-05-10T17:37:09.434Z,14.80
2023-05-10T17:39:36.752Z,14.86
2023-05-10T17:42:06.006Z,14.93
2023-05-10T17:44:32.781Z,14.66
2023-05-10T17:47:00.179Z,14.77
2023-05-10T17:49:28.708Z,15.00
2023-05-10T17:51:56.744Z,14.93
2023-05-10T17:54:23.379Z,14.80
2023-05-10T17:56:50.148Z,14.85
2023-05-10T17:59:18.227Z,14.85
2023-05-10T18:01:45.329Z,15.02
2023-05-10T18:04:12.032Z,14.75
2023-05-10T18:06:39.386Z,14.51
2023-05-10T18:09:07.267Z,14.66
2023-05-10T18:11:34.717Z,14.66
2023-05-10T18:14:01.579Z,14.66
2023-05-10T18:16:29.831Z,14.85
2023-05-10T18:18:57.462Z,14.51
2023-05-10T18:21:24.828Z,14.70
2023-05-10T18:23:51.608Z,14.49
2023-05-10T18:26:19.307Z,14.62
2023-05-10T18:29:06.306Z,14.65
2023-05-10T18:31:34.606Z,14.42
2023-05-10T18:34:01.761Z,14.15
2023-05-10T18:39:14.604Z,14.14
2023-05-10T18:41:41.301Z,14.25
2023-05-10T18:44:29.219Z,14.33
2023-05-10T18:46:59.152Z,14.25
2023-05-10T18:49:26.724Z,14.27
2023-05-10T18:51:53.699Z,14.35
2023-05-10T18:54:20.679Z,14.04
2023-05-10T18:56:47.349Z,14.06
2023-05-10T18:59:14.611Z,14.16
2023-05-10T19:01:41.746Z,14.20
2023-05-10T19:04:10.954Z,14.15
2023-05-10T19:06:37.846Z,14.05
2023-05-10T19:09:26.451Z,13.89
2023-05-10T19:11:53.615Z,13.89
2023-05-10T19:14:20.285Z,13.84
2023-05-10T19:16:49.254Z,13.76
2023-05-10T19:19:18.987Z,13.66
2023-05-10T19:21:46.347Z,13.50
2023-05-10T19:24:12.981Z,13.33
2023-05-10T19:27:00.600Z,12.84
2023-05-10T19:29:27.600Z,12.29
2023-05-10T19:31:54.420Z,12.26
2023-05-10T19:34:22.972Z,12.63
2023-05-10T19:36:49.793Z,12.66
2023-05-10T19:39:16.696Z,12.56
2023-05-10T19:41:43.528Z,12.40
2023-05-10T19:44:10.458Z,12.47
2023-05-10T19:46:38.116Z,12.23
2023-05-10T19:49:05.396Z,12.33
2023-05-10T19:51:33.487Z,12.22
2023-05-10T19:54:00.607Z,12.07
2023-05-10T19:56:28.712Z,12.11
2023-05-10T19:58:55.729Z,12.09
2023-05-10T20:01:22.646Z,11.94
2023-05-10T20:03:49.507Z,12.03
2023-05-10T20:06:16.111Z,12.30
2023-05-10T20:08:44.441Z,12.33
2023-05-10T20:11:11.296Z,12.18
2023-05-10T20:13:38.583Z,12.28
2023-05-10T20:16:06.323Z,12.28
2023-05-10T20:18:33.579Z,12.12
2023-05-10T20:21:00.551Z,12.04
2023-05-10T20:23:27.528Z,11.81
2023-05-10T20:25:55.650Z,11.78
2023-05-10T20:28:23.405Z,11.91
2023-05-10T20:30:52.453Z,11.89
2023-05-10T20:33:21.033Z,12.06
2023-05-10T20:35:47.916Z,11.99
2023-05-10T20:38:14.766Z,12.12
2023-05-10T20:40:41.636Z,12.15
2023-05-10T20:43:09.924Z,12.09
2023-05-10T20:45:37.537Z,12.04
2023-05-10T20:48:05.438Z,11.84
2023-05-10T20:50:32.368Z,11.96
2023-05-10T20:53:00.584Z,11.96
2023-05-10T20:55:27.262Z,11.94
2023-05-10T20:57:53.952Z,11.90
2023-05-10T21:00:22.179Z,11.89
2023-05-10T21:02:48.937Z,11.92
2023-05-10T21:05:16.772Z,11.87
2023-05-10T21:07:43.506Z,11.93
2023-05-10T21:10:10.930Z,12.04
2023-05-10T21:12:37.545Z,12.08
2023-05-10T21:15:04.484Z,12.12
2023-05-10T21:17:32.545Z,12.09
2023-05-10T21:19:59.217Z,12.13
2023-05-10T21:22:26.509Z,12.08
2023-05-10T21:24:53.167Z,12.03
2023-05-10T21:27:19.944Z,12.05
2023-05-10T21:29:46.729Z,12.14
2023-05-10T21:32:14.918Z,12.27
2023-05-10T21:34:43.053Z,12.27
2023-05-10T21:37:09.737Z,12.32
2023-05-10T21:39:36.396Z,12.33
2023-05-10T21:42:03.826Z,12.13
2023-05-10T21:44:31.861Z,12.06
2023-05-10T21:46:58.494Z,11.86
2023-05-10T21:49:25.272Z,11.91
2023-05-10T21:51:53.313Z,12.04
2023-05-10T21:54:20.090Z,11.65
2023-05-10T21:56:47.310Z,11.64
2023-05-10T21:59:14.103Z,11.75
2023-05-10T22:01:41.219Z,11.71
2023-05-10T22:04:07.936Z,11.82
2023-05-10T22:06:34.556Z,11.84
2023-05-10T22:09:02.621Z,11.88
2023-05-10T22:11:29.250Z,12.07
2023-05-10T22:13:55.996Z,12.13
2023-05-10T22:16:22.691Z,11.91
2023-05-10T22:18:49.453Z,12.02
2023-05-10T22:21:16.185Z,12.14
2023-05-10T22:23:42.911Z,12.05
2023-05-10T22:26:11.686Z,11.84
2023-05-10T22:28:38.375Z,11.79
2023-05-10T22:31:09.165Z,11.89
2023-05-10T22:33:35.865Z,12.16
2023-05-10T22:36:02.417Z,12.11
2023-05-10T22:38:29.035Z,12.06
2023-05-10T22:40:55.732Z,12.05
2023-05-10T22:43:23.730Z,12.01
2023-05-10T22:45:50.433Z,12.04
2023-05-10T22:48:17.250Z,11.84
2023-05-10T22:50:43.912Z,11.78
2023-05-10T22:53:10.823Z,11.66
2023-05-10T22:55:37.491Z,11.85
2023-05-10T22:58:04.157Z,12.00
2023-05-10T23:00:32.516Z,12.09
2023-05-10T23:02:59.339Z,12.14
2023-05-10T23:05:25.958Z,12.14
2023-05-10T23:07:53.565Z,12.35
2023-05-10T23:10:20.268Z,12.26
2023-05-10T23:12:46.958Z,12.21
2023-05-10T23:15:13.627Z,12.26
2023-05-10T23:17:41.719Z,12.50
2023-05-10T23:20:08.872Z,12.40
2023-05-10T23:22:35.526Z,12.40
2023-05-10T23:25:02.539Z,12.47
2023-05-10T23:27:29.933Z,12.51
2023-05-10T23:29:56.787Z,12.34
2023-05-10T23:32:23.493Z,12.51
2023-05-10T23:34:51.519Z,12.56
2023-05-10T23:37:18.138Z,12.84
2023-05-10T23:39:44.877Z,12.90
2023-05-10T23:42:11.546Z,12.94
2023-05-10T23:44:38.241Z,13.12
2023-05-10T23:47:05.243Z,13.08
2023-05-10T23:49:31.890Z,13.14
2023-05-10T23:51:59.895Z,13.17
2023-05-10T23:54:26.711Z,13.24
2023-05-10T23:56:53.426Z,13.22
2023-05-10T23:59:20.336Z,13.19
